sensor_id;sensor_type;location;lat;lon;timestamp;P1;durP1;ratioP1;P2;durP2;ratioP2
57858;SDS011;49153;45.568;11.894;2023-01-06T00:01:31;59.65;;;31.58;;
57858;SDS011;49153;45.568;11.894;2023-01-06T00:03:57;60.78;;;32.47;;
57858;SDS011;49153;45.568;11.894;2023-01-06T00:06:23;63.75;;;32.60;;
57858;SDS011;49153;45.568;11.894;2023-01-06T00:08:56;68.88;;;34.35;;
57858;SDS011;49153;45.568;11.894;2023-01-06T00:11:24;57.47;;;31.73;;
57858;SDS011;49153;45.568;11.894;2023-01-06T00:13:50;65.35;;;32.10;;
57858;SDS011;49153;45.568;11.894;2023-01-06T00:16:16;65.63;;;33.72;;
57858;SDS011;49153;45.568;11.894;2023-01-06T00:18:43;61.67;;;32.50;;
57858;SDS011;49153;45.568;11.894;2023-01-06T00:21:10;60.45;;;31.45;;
57858;SDS011;49153;45.568;11.894;2023-01-06T00:23:37;70.13;;;35.25;;
57858;SDS011;49153;45.568;11.894;2023-01-06T00:26:03;59.85;;;31.98;;
57858;SDS011;49153;45.568;11.894;2023-01-06T00:28:30;62.92;;;31.58;;
57858;SDS011;49153;45.568;11.894;2023-01-06T00:30:56;60.15;;;31.80;;
57858;SDS011;49153;45.568;11.894;2023-01-06T00:33:22;63.70;;;34.75;;
57858;SDS011;49153;45.568;11.894;2023-01-06T00:35:48;67.65;;;34.05;;
57858;SDS011;49153;45.568;11.894;2023-01-06T00:38:14;66.07;;;33.78;;
57858;SDS011;49153;45.568;11.894;2023-01-06T00:40:40;59.38;;;31.52;;
57858;SDS011;49153;45.568;11.894;2023-01-06T00:43:06;57.65;;;31.35;;
57858;SDS011;49153;45.568;11.894;2023-01-06T00:45:32;65.00;;;32.95;;
57858;SDS011;49153;45.568;11.894;2023-01-06T00:47:57;62.42;;;32.67;;
57858;SDS011;49153;45.568;11.894;2023-01-06T00:50:22;65.75;;;33.22;;
57858;SDS011;49153;45.568;11.894;2023-01-06T00:52:48;68.85;;;35.03;;
57858;SDS011;49153;45.568;11.894;2023-01-06T00:55:13;66.00;;;34.67;;
57858;SDS011;49153;45.568;11.894;2023-01-06T00:57:39;66.25;;;34.30;;
57858;SDS011;49153;45.568;11.894;2023-01-06T01:00:05;58.10;;;30.98;;
57858;SDS011;49153;45.568;11.894;2023-01-06T01:02:32;70.22;;;35.38;;
57858;SDS011;49153;45.568;11.894;2023-01-06T01:04:58;61.38;;;32.42;;
57858;SDS011;49153;45.568;11.894;2023-01-06T01:07:23;62.22;;;32.20;;
57858;SDS011;49153;45.568;11.894;2023-01-06T01:09:48;66.18;;;33.45;;
57858;SDS011;49153;45.568;11.894;2023-01-06T01:12:14;68.45;;;34.80;;
57858;SDS011;49153;45.568;11.894;2023-01-06T01:14:44;63.72;;;33.65;;
57858;SDS011;49153;45.568;11.894;2023-01-06T01:17:12;59.90;;;31.50;;
57858;SDS011;49153;45.568;11.894;2023-01-06T01:19:48;68.45;;;36.88;;
57858;SDS011;49153;45.568;11.894;2023-01-06T01:22:15;60.50;;;32.35;;
57858;SDS011;49153;45.568;11.894;2023-01-06T01:24:41;59.67;;;31.60;;
57858;SDS011;49153;45.568;11.894;2023-01-06T01:27:06;61.45;;;32.20;;
57858;SDS011;49153;45.568;11.894;2023-01-06T01:29:32;64.53;;;33.03;;
57858;SDS011;49153;45.568;11.894;2023-01-06T01:31:58;68.80;;;35.03;;
57858;SDS011;49153;45.568;11.894;2023-01-06T01:34:23;58.70;;;31.02;;
57858;SDS011;49153;45.568;11.894;2023-01-06T01:36:50;64.07;;;34.00;;
57858;SDS011;49153;45.568;11.894;2023-01-06T01:39:17;66.50;;;33.78;;
57858;SDS011;49153;45.568;11.894;2023-01-06T01:41:44;57.38;;;31.38;;
57858;SDS011;49153;45.568;11.894;2023-01-06T01:47:13;56.15;;;31.13;;
57858;SDS011;49153;45.568;11.894;2023-01-06T01:49:43;57.47;;;30.88;;
57858;SDS011;49153;45.568;11.894;2023-01-06T01:52:11;60.60;;;31.88;;
57858;SDS011;49153;45.568;11.894;2023-01-06T01:54:38;56.17;;;28.70;;
57858;SDS011;49153;45.568;11.894;2023-01-06T01:57:10;59.67;;;31.02;;
57858;SDS011;49153;45.568;11.894;2023-01-06T01:59:40;57.13;;;30.25;;
57858;SDS011;49153;45.568;11.894;2023-01-06T02:02:08;61.53;;;31.77;;
57858;SDS011;49153;45.568;11.894;2023-01-06T02:04:35;56.78;;;30.20;;
57858;SDS011;49153;45.568;11.894;2023-01-06T02:07:04;53.60;;;29.42;;
57858;SDS011;49153;45.568;11.894;2023-01-06T02:09:35;49.25;;;28.08;;
57858;SDS011;49153;45.568;11.894;2023-01-06T02:12:06;57.05;;;28.60;;
57858;SDS011;49153;45.568;11.894;2023-01-06T02:14:32;58.17;;;28.90;;
57858;SDS011;49153;45.568;11.894;2023-01-06T02:17:07;56.17;;;29.42;;
57858;SDS011;49153;45.568;11.894;2023-01-06T02:22:26;58.58;;;30.58;;
57858;SDS011;49153;45.568;11.894;2023-01-06T02:35:45;57.42;;;29.02;;
57858;SDS011;49153;45.568;11.894;2023-01-06T02:44:00;55.40;;;29.10;;
57858;SDS011;49153;45.568;11.894;2023-01-06T02:49:10;47.88;;;25.83;;
57858;SDS011;49153;45.568;11.894;2023-01-06T02:52:08;51.15;;;26.35;;
57858;SDS011;49153;45.568;11.894;2023-01-06T02:54:45;48.83;;;25.17;;
57858;SDS011;49153;45.568;11.894;2023-01-06T02:59:56;41.72;;;22.95;;
57858;SDS011;49153;45.568;11.894;2023-01-06T03:02:31;49.13;;;26.67;;
57858;SDS011;49153;45.568;11.894;2023-01-06T03:05:00;45.15;;;25.42;;
57858;SDS011;49153;45.568;11.894;2023-01-06T03:07:28;44.83;;;24.27;;
57858;SDS011;49153;45.568;11.894;2023-01-06T03:09:56;47.05;;;25.63;;
57858;SDS011;49153;45.568;11.894;2023-01-06T03:12:27;47.03;;;25.55;;
57858;SDS011;49153;45.568;11.894;2023-01-06T03:14:59;53.78;;;26.48;;
57858;SDS011;49153;45.568;11.894;2023-01-06T03:17:24;45.72;;;25.40;;
57858;SDS011;49153;45.568;11.894;2023-01-06T03:19:51;43.25;;;24.27;;
57858;SDS011;49153;45.568;11.894;2023-01-06T03:22:17;49.35;;;25.08;;
57858;SDS011;49153;45.568;11.894;2023-01-06T03:24:44;48.00;;;25.38;;
57858;SDS011;49153;45.568;11.894;2023-01-06T03:27:10;47.10;;;24.40;;
57858;SDS011;49153;45.568;11.894;2023-01-06T03:29:36;50.40;;;26.33;;
57858;SDS011;49153;45.568;11.894;2023-01-06T03:34:52;48.75;;;24.65;;
57858;SDS011;49153;45.568;11.894;2023-01-06T03:40:11;43.95;;;23.60;;
57858;SDS011;49153;45.568;11.894;2023-01-06T03:42:53;40.40;;;22.30;;
57858;SDS011;49153;45.568;11.894;2023-01-06T03:53:34;38.75;;;21.23;;
57858;SDS011;49153;45.568;11.894;2023-01-06T03:56:45;46.20;;;24.60;;
57858;SDS011;49153;45.568;11.894;2023-01-06T03:59:23;42.78;;;23.88;;
57858;SDS011;49153;45.568;11.894;2023-01-06T04:01:52;41.92;;;23.23;;
57858;SDS011;49153;45.568;11.894;2023-01-06T04:04:18;38.08;;;21.20;;
57858;SDS011;49153;45.568;11.894;2023-01-06T04:06:44;42.83;;;23.77;;
57858;SDS011;49153;45.568;11.894;2023-01-06T04:09:10;38.20;;;22.23;;
57858;SDS011;49153;45.568;11.894;2023-01-06T04:11:36;38.58;;;21.30;;
57858;SDS011;49153;45.568;11.894;2023-01-06T04:14:20;43.05;;;23.45;;
57858;SDS011;49153;45.568;11.894;2023-01-06T04:16:46;41.03;;;22.33;;
57858;SDS011;49153;45.568;11.894;2023-01-06T04:19:11;40.40;;;22.65;;
57858;SDS011;49153;45.568;11.894;2023-01-06T04:21:37;36.08;;;20.83;;
57858;SDS011;49153;45.568;11.894;2023-01-06T04:24:02;41.55;;;21.38;;
57858;SDS011;49153;45.568;11.894;2023-01-06T04:26:28;36.30;;;20.48;;
57858;SDS011;49153;45.568;11.894;2023-01-06T04:28:54;33.00;;;19.58;;
57858;SDS011;49153;45.568;11.894;2023-01-06T04:31:20;32.70;;;18.75;;
57858;SDS011;49153;45.568;11.894;2023-01-06T04:33:45;32.72;;;18.90;;
57858;SDS011;49153;45.568;11.894;2023-01-06T04:36:11;29.92;;;18.02;;
57858;SDS011;49153;45.568;11.894;2023-01-06T04:38:37;29.83;;;17.75;;
57858;SDS011;49153;45.568;11.894;2023-01-06T04:41:02;32.10;;;19.67;;
57858;SDS011;49153;45.568;11.894;2023-01-06T04:43:27;33.00;;;18.73;;
57858;SDS011;49153;45.568;11.894;2023-01-06T04:45:53;36.90;;;20.92;;
57858;SDS011;49153;45.568;11.894;2023-01-06T04:48:21;31.38;;;18.38;;
57858;SDS011;49153;45.568;11.894;2023-01-06T04:50:46;34.20;;;18.60;;
57858;SDS011;49153;45.568;11.894;2023-01-06T04:53:12;32.03;;;17.67;;
57858;SDS011;49153;45.568;11.894;2023-01-06T04:55:38;34.55;;;18.38;;
57858;SDS011;49153;45.568;11.894;2023-01-06T04:58:04;35.38;;;20.20;;
57858;SDS011;49153;45.568;11.894;2023-01-06T05:00:29;37.03;;;20.08;;
57858;SDS011;49153;45.568;11.894;2023-01-06T05:02:55;31.33;;;18.55;;
57858;SDS011;49153;45.568;11.894;2023-01-06T05:05:20;33.13;;;19.48;;
57858;SDS011;49153;45.568;11.894;2023-01-06T05:07:46;33.92;;;18.30;;
57858;SDS011;49153;45.568;11.894;2023-01-06T05:10:11;30.52;;;18.77;;
57858;SDS011;49153;45.568;11.894;2023-01-06T05:12:36;31.55;;;19.17;;
57858;SDS011;49153;45.568;11.894;2023-01-06T05:15:02;33.08;;;18.90;;
57858;SDS011;49153;45.568;11.894;2023-01-06T05:17:28;27.90;;;17.73;;
57858;SDS011;49153;45.568;11.894;2023-01-06T05:19:54;30.70;;;17.73;;
57858;SDS011;49153;45.568;11.894;2023-01-06T05:22:19;30.77;;;18.13;;
57858;SDS011;49153;45.568;11.894;2023-01-06T05:24:45;34.78;;;18.70;;
57858;SDS011;49153;45.568;11.894;2023-01-06T05:27:10;27.23;;;16.48;;
57858;SDS011;49153;45.568;11.894;2023-01-06T05:29:36;30.33;;;18.25;;
57858;SDS011;49153;45.568;11.894;2023-01-06T05:32:02;27.95;;;17.40;;
57858;SDS011;49153;45.568;11.894;2023-01-06T05:34:28;32.33;;;18.98;;
57858;SDS011;49153;45.568;11.894;2023-01-06T05:36:54;30.52;;;19.00;;
57858;SDS011;49153;45.568;11.894;2023-01-06T05:39:20;26.67;;;16.52;;
57858;SDS011;49153;45.568;11.894;2023-01-06T05:41:46;27.20;;;16.73;;
57858;SDS011;49153;45.568;11.894;2023-01-06T05:44:11;26.35;;;16.20;;
57858;SDS011;49153;45.568;11.894;2023-01-06T05:46:37;33.45;;;18.38;;
57858;SDS011;49153;45.568;11.894;2023-01-06T05:49:02;35.08;;;19.30;;
57858;SDS011;49153;45.568;11.894;2023-01-06T05:51:28;26.92;;;17.42;;
57858;SDS011;49153;45.568;11.894;2023-01-06T05:53:54;31.02;;;17.50;;
57858;SDS011;49153;45.568;11.894;2023-01-06T05:56:20;29.52;;;17.48;;
57858;SDS011;49153;45.568;11.894;2023-01-06T05:58:49;28.98;;;17.80;;
57858;SDS011;49153;45.568;11.894;2023-01-06T06:01:20;29.52;;;17.33;;
57858;SDS011;49153;45.568;11.894;2023-01-06T06:03:52;28.02;;;17.02;;
57858;SDS011;49153;45.568;11.894;2023-01-06T06:06:19;25.60;;;16.42;;
57858;SDS011;49153;45.568;11.894;2023-01-06T06:08:46;30.08;;;18.08;;
57858;SDS011;49153;45.568;11.894;2023-01-06T06:11:12;34.25;;;18.75;;
57858;SDS011;49153;45.568;11.894;2023-01-06T06:13:43;28.65;;;18.08;;
57858;SDS011;49153;45.568;11.894;2023-01-06T06:16:11;28.02;;;17.77;;
57858;SDS011;49153;45.568;11.894;2023-01-06T06:18:39;29.05;;;17.58;;
57858;SDS011;49153;45.568;11.894;2023-01-06T06:21:11;30.60;;;18.10;;
57858;SDS011;49153;45.568;11.894;2023-01-06T06:23:38;27.88;;;17.48;;
57858;SDS011;49153;45.568;11.894;2023-01-06T06:26:04;26.40;;;16.92;;
57858;SDS011;49153;45.568;11.894;2023-01-06T06:28:31;27.38;;;16.70;;
57858;SDS011;49153;45.568;11.894;2023-01-06T06:31:07;27.92;;;16.63;;
57858;SDS011;49153;45.568;11.894;2023-01-06T06:33:39;28.17;;;16.85;;
57858;SDS011;49153;45.568;11.894;2023-01-06T06:36:05;25.88;;;16.63;;
57858;SDS011;49153;45.568;11.894;2023-01-06T06:38:35;27.25;;;17.25;;
57858;SDS011;49153;45.568;11.894;2023-01-06T06:41:01;26.95;;;16.48;;
57858;SDS011;49153;45.568;11.894;2023-01-06T06:43:26;28.80;;;17.50;;
57858;SDS011;49153;45.568;11.894;2023-01-06T06:45:53;27.65;;;16.73;;
57858;SDS011;49153;45.568;11.894;2023-01-06T06:48:18;26.38;;;16.45;;
57858;SDS011;49153;45.568;11.894;2023-01-06T06:50:44;29.33;;;16.90;;
57858;SDS011;49153;45.568;11.894;2023-01-06T06:53:26;27.55;;;16.67;;
57858;SDS011;49153;45.568;11.894;2023-01-06T06:55:52;30.10;;;16.85;;
57858;SDS011;49153;45.568;11.894;2023-01-06T06:58:18;26.52;;;16.45;;
57858;SDS011;49153;45.568;11.894;2023-01-06T07:00:43;27.40;;;15.65;;
57858;SDS011;49153;45.568;11.894;2023-01-06T07:03:08;30.13;;;16.33;;
57858;SDS011;49153;45.568;11.894;2023-01-06T07:05:34;29.52;;;15.88;;
57858;SDS011;49153;45.568;11.894;2023-01-06T07:07:59;25.63;;;16.38;;
57858;SDS011;49153;45.568;11.894;2023-01-06T07:10:25;24.90;;;15.05;;
57858;SDS011;49153;45.568;11.894;2023-01-06T07:12:50;24.88;;;15.07;;
57858;SDS011;49153;45.568;11.894;2023-01-06T07:15:16;25.08;;;15.50;;
57858;SDS011;49153;45.568;11.894;2023-01-06T07:17:41;26.13;;;14.82;;
57858;SDS011;49153;45.568;11.894;2023-01-06T07:20:07;27.05;;;15.43;;
57858;SDS011;49153;45.568;11.894;2023-01-06T07:22:37;24.70;;;15.25;;
57858;SDS011;49153;45.568;11.894;2023-01-06T07:25:04;24.10;;;15.02;;
57858;SDS011;49153;45.568;11.894;2023-01-06T07:27:31;26.95;;;15.73;;
57858;SDS011;49153;45.568;11.894;2023-01-06T07:30:00;22.58;;;14.48;;
57858;SDS011;49153;45.568;11.894;2023-01-06T07:32:26;26.67;;;15.32;;
57858;SDS011;49153;45.568;11.894;2023-01-06T07:34:51;25.55;;;15.23;;
57858;SDS011;49153;45.568;11.894;2023-01-06T07:37:17;26.15;;;14.68;;
57858;SDS011;49153;45.568;11.894;2023-01-06T07:39:42;24.17;;;15.23;;
57858;SDS011;49153;45.568;11.894;2023-01-06T07:42:08;25.00;;;14.70;;
57858;SDS011;49153;45.568;11.894;2023-01-06T07:44:34;26.15;;;15.23;;
57858;SDS011;49153;45.568;11.894;2023-01-06T07:46:59;27.27;;;15.30;;
57858;SDS011;49153;45.568;11.894;2023-01-06T07:49:25;26.83;;;15.50;;
57858;SDS011;49153;45.568;11.894;2023-01-06T07:51:50;34.78;;;17.08;;
57858;SDS011;49153;45.568;11.894;2023-01-06T07:54:16;34.58;;;17.40;;
57858;SDS011;49153;45.568;11.894;2023-01-06T07:56:42;32.92;;;18.85;;
57858;SDS011;49153;45.568;11.894;2023-01-06T07:59:08;31.63;;;17.75;;
57858;SDS011;49153;45.568;11.894;2023-01-06T08:01:34;34.35;;;17.65;;
57858;SDS011;49153;45.568;11.894;2023-01-06T08:04:00;31.35;;;17.08;;
57858;SDS011;49153;45.568;11.894;2023-01-06T08:06:25;32.58;;;17.08;;
57858;SDS011;49153;45.568;11.894;2023-01-06T08:08:51;30.60;;;17.08;;
57858;SDS011;49153;45.568;11.894;2023-01-06T08:11:16;35.45;;;19.00;;
57858;SDS011;49153;45.568;11.894;2023-01-06T08:13:42;36.20;;;19.75;;
57858;SDS011;49153;45.568;11.894;2023-01-06T08:16:08;37.97;;;19.48;;
57858;SDS011;49153;45.568;11.894;2023-01-06T08:18:34;34.03;;;18.42;;
57858;SDS011;49153;45.568;11.894;2023-01-06T08:21:00;32.30;;;17.98;;
57858;SDS011;49153;45.568;11.894;2023-01-06T08:23:27;35.35;;;18.67;;
57858;SDS011;49153;45.568;11.894;2023-01-06T08:26:00;36.42;;;19.00;;
57858;SDS011;49153;45.568;11.894;2023-01-06T08:28:29;34.75;;;19.15;;
57858;SDS011;49153;45.568;11.894;2023-01-06T08:30:55;38.08;;;20.58;;
57858;SDS011;49153;45.568;11.894;2023-01-06T08:33:21;38.03;;;19.92;;
57858;SDS011;49153;45.568;11.894;2023-01-06T08:35:49;38.97;;;20.15;;
57858;SDS011;49153;45.568;11.894;2023-01-06T08:38:16;38.63;;;21.33;;
57858;SDS011;49153;45.568;11.894;2023-01-06T08:40:41;42.10;;;21.67;;
57858;SDS011;49153;45.568;11.894;2023-01-06T08:43:06;41.35;;;22.95;;
57858;SDS011;49153;45.568;11.894;2023-01-06T08:45:32;39.45;;;22.05;;
57858;SDS011;49153;45.568;11.894;2023-01-06T08:48:01;41.08;;;21.45;;
57858;SDS011;49153;45.568;11.894;2023-01-06T08:50:27;37.72;;;20.90;;
57858;SDS011;49153;45.568;11.894;2023-01-06T08:52:52;44.65;;;23.85;;
57858;SDS011;49153;45.568;11.894;2023-01-06T08:55:18;38.95;;;22.52;;
57858;SDS011;49153;45.568;11.894;2023-01-06T08:57:43;44.95;;;23.55;;
57858;SDS011;49153;45.568;11.894;2023-01-06T09:00:09;39.65;;;22.52;;
57858;SDS011;49153;45.568;11.894;2023-01-06T09:02:34;37.80;;;20.92;;
57858;SDS011;49153;45.568;11.894;2023-01-06T09:05:00;41.45;;;22.75;;
57858;SDS011;49153;45.568;11.894;2023-01-06T09:07:25;38.78;;;22.00;;
57858;SDS011;49153;45.568;11.894;2023-01-06T09:09:51;42.10;;;21.73;;
57858;SDS011;49153;45.568;11.894;2023-01-06T09:12:16;45.70;;;24.33;;
57858;SDS011;49153;45.568;11.894;2023-01-06T09:14:46;46.00;;;24.90;;
57858;SDS011;49153;45.568;11.894;2023-01-06T09:17:11;54.30;;;27.63;;
57858;SDS011;49153;45.568;11.894;2023-01-06T09:19:42;51.47;;;26.30;;
57858;SDS011;49153;45.568;11.894;2023-01-06T09:22:07;51.65;;;26.45;;
57858;SDS011;49153;45.568;11.894;2023-01-06T09:24:33;51.92;;;27.15;;
57858;SDS011;49153;45.568;11.894;2023-01-06T09:26:58;52.72;;;27.98;;
57858;SDS011;49153;45.568;11.894;2023-01-06T09:29:23;55.95;;;28.98;;
57858;SDS011;49153;45.568;11.894;2023-01-06T09:31:49;50.38;;;26.70;;
57858;SDS011;49153;45.568;11.894;2023-01-06T09:34:14;51.83;;;27.38;;
57858;SDS011;49153;45.568;11.894;2023-01-06T09:36:40;49.00;;;27.15;;
57858;SDS011;49153;45.568;11.894;2023-01-06T09:39:05;51.03;;;27.15;;
57858;SDS011;49153;45.568;11.894;2023-01-06T09:41:39;48.60;;;26.25;;
57858;SDS011;49153;45.568;11.894;2023-01-06T09:44:12;49.20;;;25.60;;
57858;SDS011;49153;45.568;11.894;2023-01-06T09:46:49;49.30;;;25.92;;
57858;SDS011;49153;45.568;11.894;2023-01-06T09:51:41;46.88;;;25.55;;
57858;SDS011;49153;45.568;11.894;2023-01-06T09:54:18;48.38;;;24.63;;
57858;SDS011;49153;45.568;11.894;2023-01-06T09:56:50;42.70;;;23.98;;
57858;SDS011;49153;45.568;11.894;2023-01-06T10:01:53;42.38;;;23.63;;
57858;SDS011;49153;45.568;11.894;2023-01-06T10:04:24;43.40;;;22.85;;
57858;SDS011;49153;45.568;11.894;2023-01-06T10:06:54;39.75;;;22.15;;
57858;SDS011;49153;45.568;11.894;2023-01-06T10:14:59;39.92;;;22.33;;
57858;SDS011;49153;45.568;11.894;2023-01-06T10:25:49;45.83;;;23.85;;
57858;SDS011;49153;45.568;11.894;2023-01-06T10:28:20;42.47;;;23.20;;
57858;SDS011;49153;45.568;11.894;2023-01-06T10:30:53;41.45;;;22.65;;
57858;SDS011;49153;45.568;11.894;2023-01-06T10:33:24;42.13;;;22.60;;
57858;SDS011;49153;45.568;11.894;2023-01-06T10:35:53;43.35;;;23.40;;
57858;SDS011;49153;45.568;11.894;2023-01-06T10:38:39;39.63;;;22.52;;
57858;SDS011;49153;45.568;11.894;2023-01-06T10:41:13;39.28;;;23.20;;
57858;SDS011;49153;45.568;11.894;2023-01-06T10:43:44;42.60;;;22.85;;
57858;SDS011;49153;45.568;11.894;2023-01-06T10:46:09;46.33;;;24.83;;
57858;SDS011;49153;45.568;11.894;2023-01-06T10:48:35;50.88;;;28.60;;
57858;SDS011;49153;45.568;11.894;2023-01-06T10:54:11;54.72;;;30.08;;
57858;SDS011;49153;45.568;11.894;2023-01-06T10:56:40;48.80;;;27.90;;
57858;SDS011;49153;45.568;11.894;2023-01-06T10:59:10;46.50;;;27.40;;
57858;SDS011;49153;45.568;11.894;2023-01-06T11:01:49;47.90;;;25.80;;
57858;SDS011;49153;45.568;11.894;2023-01-06T11:04:16;46.40;;;26.58;;
57858;SDS011;49153;45.568;11.894;2023-01-06T11:06:45;47.08;;;26.55;;
57858;SDS011;49153;45.568;11.894;2023-01-06T11:09:24;45.47;;;26.60;;
57858;SDS011;49153;45.568;11.894;2023-01-06T11:12:07;42.35;;;25.45;;
57858;SDS011;49153;45.568;11.894;2023-01-06T11:15:04;46.13;;;26.23;;
57858;SDS011;49153;45.568;11.894;2023-01-06T11:17:32;42.47;;;25.35;;
57858;SDS011;49153;45.568;11.894;2023-01-06T11:22:52;42.78;;;23.95;;
57858;SDS011;49153;45.568;11.894;2023-01-06T11:27:43;42.60;;;24.75;;
57858;SDS011;49153;45.568;11.894;2023-01-06T11:30:26;41.03;;;24.60;;
57858;SDS011;49153;45.568;11.894;2023-01-06T11:32:52;41.85;;;24.55;;
57858;SDS011;49153;45.568;11.894;2023-01-06T11:35:20;40.78;;;24.88;;
57858;SDS011;49153;45.568;11.894;2023-01-06T11:37:47;42.65;;;24.20;;
57858;SDS011;49153;45.568;11.894;2023-01-06T11:42:47;40.28;;;24.08;;
57858;SDS011;49153;45.568;11.894;2023-01-06T11:45:36;38.70;;;23.67;;
57858;SDS011;49153;45.568;11.894;2023-01-06T11:48:21;37.33;;;22.42;;
57858;SDS011;49153;45.568;11.894;2023-01-06T11:50:53;38.17;;;22.45;;
57858;SDS011;49153;45.568;11.894;2023-01-06T11:53:22;39.90;;;24.30;;
57858;SDS011;49153;45.568;11.894;2023-01-06T11:55:57;41.10;;;23.88;;
57858;SDS011;49153;45.568;11.894;2023-01-06T12:04:39;42.13;;;22.60;;
57858;SDS011;49153;45.568;11.894;2023-01-06T12:10:09;38.78;;;22.98;;
57858;SDS011;49153;45.568;11.894;2023-01-06T12:12:41;38.72;;;23.08;;
57858;SDS011;49153;45.568;11.894;2023-01-06T12:15:12;39.08;;;22.75;;
57858;SDS011;49153;45.568;11.894;2023-01-06T12:20:31;35.70;;;21.65;;
57858;SDS011;49153;45.568;11.894;2023-01-06T12:23:04;37.33;;;21.23;;
57858;SDS011;49153;45.568;11.894;2023-01-06T12:25:40;39.83;;;23.05;;
57858;SDS011;49153;45.568;11.894;2023-01-06T12:28:12;37.97;;;21.98;;
57858;SDS011;49153;45.568;11.894;2023-01-06T12:36:40;36.90;;;21.10;;
57858;SDS011;49153;45.568;11.894;2023-01-06T12:39:16;36.85;;;20.52;;
57858;SDS011;49153;45.568;11.894;2023-01-06T12:55:06;36.75;;;20.63;;
57858;SDS011;49153;45.568;11.894;2023-01-06T13:20:00;32.42;;;17.35;;
57858;SDS011;49153;45.568;11.894;2023-01-06T13:24:59;32.17;;;17.08;;
57858;SDS011;49153;45.568;11.894;2023-01-06T13:41:20;31.45;;;15.65;;
57858;SDS011;49153;45.568;11.894;2023-01-06T13:43:48;32.08;;;16.40;;
57858;SDS011;49153;45.568;11.894;2023-01-06T13:46:16;31.13;;;16.48;;
57858;SDS011;49153;45.568;11.894;2023-01-06T13:48:53;28.45;;;15.07;;
57858;SDS011;49153;45.568;11.894;2023-01-06T13:51:25;28.75;;;15.63;;
57858;SDS011;49153;45.568;11.894;2023-01-06T13:53:54;34.75;;;16.60;;
57858;SDS011;49153;45.568;11.894;2023-01-06T13:56:21;33.13;;;15.80;;
57858;SDS011;49153;45.568;11.894;2023-01-06T13:58:49;30.73;;;15.27;;
57858;SDS011;49153;45.568;11.894;2023-01-06T14:01:29;28.98;;;14.27;;
57858;SDS011;49153;45.568;11.894;2023-01-06T14:04:42;31.13;;;15.33;;
57858;SDS011;49153;45.568;11.894;2023-01-06T14:07:03;32.80;;;17.23;;
57858;SDS011;49153;45.568;11.894;2023-01-06T14:09:29;28.50;;;15.43;;
57858;SDS011;49153;45.568;11.894;2023-01-06T14:12:07;30.17;;;14.32;;
57858;SDS011;49153;45.568;11.894;2023-01-06T14:14:35;29.92;;;14.55;;
57858;SDS011;49153;45.568;11.894;2023-01-06T14:17:03;32.00;;;14.57;;
57858;SDS011;49153;45.568;11.894;2023-01-06T14:19:30;31.20;;;14.82;;
57858;SDS011;49153;45.568;11.894;2023-01-06T14:24:49;30.02;;;14.32;;
57858;SDS011;49153;45.568;11.894;2023-01-06T14:28:03;28.42;;;13.40;;
57858;SDS011;49153;45.568;11.894;2023-01-06T14:30:19;27.05;;;13.82;;
57858;SDS011;49153;45.568;11.894;2023-01-06T14:35:18;28.73;;;13.85;;
57858;SDS011;49153;45.568;11.894;2023-01-06T14:37:55;28.23;;;14.27;;
57858;SDS011;49153;45.568;11.894;2023-01-06T14:40:25;28.30;;;14.55;;
57858;SDS011;49153;45.568;11.894;2023-01-06T14:42:56;26.88;;;13.65;;
57858;SDS011;49153;45.568;11.894;2023-01-06T14:45:26;32.88;;;15.38;;
57858;SDS011;49153;45.568;11.894;2023-01-06T14:48:00;30.17;;;15.43;;
57858;SDS011;49153;45.568;11.894;2023-01-06T14:50:30;34.17;;;16.10;;
57858;SDS011;49153;45.568;11.894;2023-01-06T14:53:01;30.40;;;15.13;;
57858;SDS011;49153;45.568;11.894;2023-01-06T14:55:30;32.53;;;16.42;;
57858;SDS011;49153;45.568;11.894;2023-01-06T14:57:58;36.30;;;15.70;;
57858;SDS011;49153;45.568;11.894;2023-01-06T15:00:27;31.40;;;14.70;;
57858;SDS011;49153;45.568;11.894;2023-01-06T15:03:04;29.92;;;14.70;;
57858;SDS011;49153;45.568;11.894;2023-01-06T15:05:44;28.98;;;13.70;;
57858;SDS011;49153;45.568;11.894;2023-01-06T15:10:38;28.08;;;13.82;;
57858;SDS011;49153;45.568;11.894;2023-01-06T15:15:40;27.08;;;14.00;;
57858;SDS011;49153;45.568;11.894;2023-01-06T15:18:06;29.48;;;14.15;;
57858;SDS011;49153;45.568;11.894;2023-01-06T15:20:34;28.65;;;14.20;;
57858;SDS011;49153;45.568;11.894;2023-01-06T15:23:04;26.25;;;13.32;;
57858;SDS011;49153;45.568;11.894;2023-01-06T15:25:30;26.50;;;13.82;;
57858;SDS011;49153;45.568;11.894;2023-01-06T15:27:59;28.63;;;13.25;;
57858;SDS011;49153;45.568;11.894;2023-01-06T15:30:25;26.23;;;13.77;;
57858;SDS011;49153;45.568;11.894;2023-01-06T15:32:54;29.83;;;13.38;;
57858;SDS011;49153;45.568;11.894;2023-01-06T15:35:28;29.90;;;14.13;;
57858;SDS011;49153;45.568;11.894;2023-01-06T15:38:21;29.30;;;14.48;;
57858;SDS011;49153;45.568;11.894;2023-01-06T15:40:46;29.52;;;14.32;;
57858;SDS011;49153;45.568;11.894;2023-01-06T15:43:13;32.38;;;15.90;;
57858;SDS011;49153;45.568;11.894;2023-01-06T15:45:39;32.33;;;15.48;;
57858;SDS011;49153;45.568;11.894;2023-01-06T15:48:10;33.85;;;16.05;;
57858;SDS011;49153;45.568;11.894;2023-01-06T15:50:40;32.53;;;16.13;;
57858;SDS011;49153;45.568;11.894;2023-01-06T15:53:12;33.95;;;16.65;;
57858;SDS011;49153;45.568;11.894;2023-01-06T15:55:47;34.40;;;17.38;;
57858;SDS011;49153;45.568;11.894;2023-01-06T15:58:18;38.75;;;16.55;;
57858;SDS011;49153;45.568;11.894;2023-01-06T16:01:07;38.13;;;17.75;;
57858;SDS011;49153;45.568;11.894;2023-01-06T16:03:37;36.63;;;18.08;;
57858;SDS011;49153;45.568;11.894;2023-01-06T16:08:31;34.42;;;16.30;;
57858;SDS011;49153;45.568;11.894;2023-01-06T16:13:40;37.22;;;18.17;;
57858;SDS011;49153;45.568;11.894;2023-01-06T16:23:54;39.42;;;19.55;;
57858;SDS011;49153;45.568;11.894;2023-01-06T16:26:20;45.25;;;22.30;;
57858;SDS011;49153;45.568;11.894;2023-01-06T16:28:53;39.85;;;19.95;;
57858;SDS011;49153;45.568;11.894;2023-01-06T16:31:34;43.22;;;21.13;;
57858;SDS011;49153;45.568;11.894;2023-01-06T16:34:14;42.63;;;19.90;;
57858;SDS011;49153;45.568;11.894;2023-01-06T16:36:41;37.03;;;19.10;;
57858;SDS011;49153;45.568;11.894;2023-01-06T16:39:07;40.13;;;20.52;;
57858;SDS011;49153;45.568;11.894;2023-01-06T16:41:32;40.70;;;20.45;;
57858;SDS011;49153;45.568;11.894;2023-01-06T16:43:58;44.78;;;20.92;;
57858;SDS011;49153;45.568;11.894;2023-01-06T16:46:23;39.15;;;19.45;;
57858;SDS011;49153;45.568;11.894;2023-01-06T16:48:52;43.40;;;20.38;;
57858;SDS011;49153;45.568;11.894;2023-01-06T16:51:18;43.95;;;22.10;;
57858;SDS011;49153;45.568;11.894;2023-01-06T16:53:45;39.53;;;20.17;;
57858;SDS011;49153;45.568;11.894;2023-01-06T16:56:21;45.40;;;21.67;;
57858;SDS011;49153;45.568;11.894;2023-01-06T16:58:49;41.33;;;20.45;;
57858;SDS011;49153;45.568;11.894;2023-01-06T17:01:18;41.55;;;20.52;;
57858;SDS011;49153;45.568;11.894;2023-01-06T17:03:55;41.22;;;20.23;;